Portland, Oregon
Traffic Map
Current Weather Conditions
Portland, Oregon
Scattered Clouds
Scattered Clouds
71°
Feels Like: 71°
Wind Chill: 71° Ceiling: Unl
Heat Index: 71° Visibility: 10mi
Dew Point: 50° Wind: 16mph
Humidity: 47% Direction: 310° (NW)
Pressure: 29.96in Gusts: 0mph
Raw Report DataKPDX 310153Z 31014KT 10SM FEW060 SCT090 22/10 A2996 RMK AO2 SLP145 T02170100 $
Traffic Incident Summary
Active as of:
Severity:
Category:
InformationThere was an issue retrieving the traffic information for this location. Please try a different location or try again shortly.
Advertisements
Track Severe Weather on mobile